Time;durP1;ratioP1;P1;durP2;ratioP2;P2;SDS_P1;SDS_P2;PMS_P1;PMS_P2;Temp;Humidity;BMP_temperature;BMP_pressure;BME280_temperature;BME280_humidity;BME280_pressure;Samples;Min_cycle;Max_cycle;Signal;HPM_P1;HPM_P2
2021/12/11 00:01:23;;;;;;;13.48;5.68;;;;;;;5.86;69.20;98244.09;5092626;28;20020;-50
2021/12/11 00:04:01;;;;;;;10.13;5.13;;;;;;;5.76;68.67;98246.19;5092558;28;20540;-50
2021/12/11 00:06:31;;;;;;;13.27;4.70;;;;;;;5.64;69.11;98251.03;5092440;28;20059;-51
2021/12/11 00:09:08;;;;;;;13.57;6.43;;;;;;;5.58;69.29;98243.94;5091153;28;20028;-51
2021/12/11 00:11:39;;;;;;;10.88;5.45;;;;;;;5.60;69.83;98247.16;5091049;28;20383;-51
2021/12/11 00:14:08;;;;;;;10.48;4.47;;;;;;;5.64;70.06;98248.41;5092443;28;20035;-51
2021/12/11 00:16:37;;;;;;;13.00;3.13;;;;;;;5.71;70.16;98248.50;5092304;28;20032;-50
2021/12/11 00:19:08;;;;;;;13.27;5.05;;;;;;;5.76;69.62;98254.78;5092329;28;20416;-50
2021/12/11 00:21:34;;;;;;;13.43;7.45;;;;;;;5.84;70.38;98258.31;5092243;28;20508;-51
2021/12/11 00:24:06;;;;;;;871.45;528.88;;;;;;;5.83;70.14;98259.28;5091900;28;20107;-50
2021/12/11 00:26:39;;;;;;;183.18;114.55;;;;;;;5.78;70.28;98263.22;5090788;28;20504;-50
2021/12/11 00:29:07;;;;;;;46.33;25.63;;;;;;;5.76;70.24;98260.00;5092157;28;20036;-50
2021/12/11 00:31:35;;;;;;;65.53;43.70;;;;;;;5.77;70.50;98266.81;5091984;28;20024;-50
2021/12/11 00:34:03;;;;;;;17.50;11.63;;;;;;;5.76;70.61;98265.19;5090782;28;20502;-49
2021/12/11 00:36:34;;;;;;;15.48;8.50;;;;;;;5.68;69.94;98273.09;5090727;28;20389;-50
2021/12/11 00:39:08;;;;;;;15.65;5.82;;;;;;;5.69;71.11;98273.91;5092093;28;20032;-49
2021/12/11 00:41:35;;;;;;;20.58;13.20;;;;;;;5.93;70.61;98278.03;5091994;28;20485;-50
2021/12/11 00:44:01;;;;;;;19.60;7.10;;;;;;;6.10;70.38;98276.09;5091944;28;20032;-51
2021/12/11 00:46:29;;;;;;;7.90;3.85;;;;;;;6.17;68.73;98269.94;5091839;28;20022;-50
2021/12/11 00:49:08;;;;;;;14.60;5.07;;;;;;;6.00;69.61;98273.75;5091370;28;20447;-50
2021/12/11 00:51:34;;;;;;;13.82;3.47;;;;;;;6.03;69.57;98275.19;5091800;28;20020;-50
2021/12/11 00:54:01;;;;;;;11.25;5.05;;;;;;;5.92;68.90;98277.22;5090537;28;20024;-51
2021/12/11 00:56:37;;;;;;;9.73;3.33;;;;;;;5.84;68.95;98287.75;5091755;28;20028;-50
2021/12/11 00:59:05;;;;;;;;;;;;;;;5.78;69.53;98286.66;5092325;28;20035;-51
2021/12/11 01:01:34;;;;;;;15.55;3.47;;;;;;;5.77;69.50;98290.22;5090736;28;19918;-50
2021/12/11 01:04:41;;;;;;;19.75;3.95;;;;;;;5.67;69.02;98294.09;5092014;28;20073;-50
2021/12/11 01:07:18;;;;;;;11.07;4.60;;;;;;;5.57;69.60;98299.56;5079811;28;20379;-50
2021/12/11 01:09:50;;;;;;;28.85;19.60;;;;;;;5.52;70.31;98294.91;5090454;28;20480;-51
2021/12/11 01:12:44;;;;;;;12.70;6.95;;;;;;;5.55;70.77;98307.56;5091735;28;20024;-50
2021/12/11 01:15:32;;;;;;;9.63;3.50;;;;;;;5.71;70.23;98311.78;5091693;28;20497;-50
2021/12/11 01:18:21;;;;;;;8.95;4.35;;;;;;;5.64;70.23;98317.91;5091610;28;20559;-51
2021/12/11 01:21:03;;;;;;;10.20;5.82;;;;;;;5.54;70.33;98313.75;5091660;28;20027;-50
2021/12/11 01:26:05;;;;;;;16.35;3.95;;;;;;;5.53;70.57;98313.91;5091330;28;20139;-51
2021/12/11 01:28:32;;;;;;;11.05;4.50;;;;;;;5.45;70.98;98321.78;5091600;28;20020;-50
2021/12/11 01:31:01;;;;;;;12.50;4.75;;;;;;;5.31;70.84;98332.00;5091521;28;20020;-49
2021/12/11 01:33:27;;;;;;;10.80;4.35;;;;;;;5.20;71.63;98329.81;5091494;28;20446;-50
2021/12/11 01:35:53;;;;;;;6.90;2.83;;;;;;;5.26;71.69;98336.91;5091479;28;20114;-50
2021/12/11 01:38:22;;;;;;;8.88;2.35;;;;;;;5.35;70.96;98342.84;5091509;28;20099;-51
2021/12/11 01:40:52;;;;;;;14.27;5.00;;;;;;;5.38;70.46;98348.53;5091406;28;20031;-51
2021/12/11 01:43:22;;;;;;;9.82;3.35;;;;;;;5.32;70.10;98353.63;5091782;28;20028;-50
2021/12/11 01:45:51;;;;;;;9.02;6.20;;;;;;;5.21;71.16;98360.03;5091292;28;20580;-50
2021/12/11 01:48:21;;;;;;;13.50;5.93;;;;;;;5.26;71.63;98359.53;5090100;28;20016;-50
2021/12/11 01:50:55;;;;;;;15.57;9.20;;;;;;;5.21;71.92;98360.03;5091354;28;20541;-50
2021/12/11 01:53:30;;;;;;;11.43;6.45;;;;;;;5.28;72.08;98368.78;5090098;28;20036;-50
2021/12/11 01:56:00;;;;;;;16.40;7.22;;;;;;;5.27;71.45;98367.16;5091346;28;20050;-51
2021/12/11 01:58:34;;;;;;;13.23;5.90;;;;;;;5.12;72.05;98371.50;5091284;28;20523;-51
2021/12/11 02:01:09;;;;;;;14.32;7.72;;;;;;;5.09;72.11;98384.84;5093205;28;20470;-51
2021/12/11 02:03:36;;;;;;;13.23;6.50;;;;;;;5.09;71.96;98382.22;5094919;28;20396;-50
2021/12/11 02:06:02;;;;;;;15.23;6.80;;;;;;;5.10;72.90;98376.06;5094757;28;20032;-51
2021/12/11 02:08:32;;;;;;;10.98;5.63;;;;;;;5.10;72.78;98376.88;5094844;28;20099;-50
2021/12/11 02:11:03;;;;;;;12.23;4.75;;;;;;;5.10;72.44;98389.88;5093416;28;20058;-51
2021/12/11 02:13:40;;;;;;;10.35;5.00;;;;;;;5.21;72.83;98393.84;5094733;28;20031;-50
2021/12/11 02:16:13;;;;;;;14.35;5.50;;;;;;;5.42;72.36;98400.25;5094656;28;20067;-50
2021/12/11 02:18:44;;;;;;;12.82;5.55;;;;;;;5.59;72.35;98406.91;5094630;28;20046;-51
2021/12/11 02:21:35;;;;;;;20.20;6.65;;;;;;;6.00;71.76;98402.19;5094529;28;20028;-50
2021/12/11 02:24:09;;;;;;;9.95;5.53;;;;;;;6.10;70.42;98401.94;5094244;28;20404;-49
2021/12/11 02:26:38;;;;;;;11.50;6.05;;;;;;;6.11;70.86;98400.13;5094368;28;20081;-51
2021/12/11 02:29:22;;;;;;;12.85;7.68;;;;;;;6.19;70.02;98406.06;5094372;28;20081;-50
2021/12/11 02:32:06;;;;;;;13.82;6.00;;;;;;;6.08;69.60;98400.50;5093015;28;20105;-50
2021/12/11 02:34:38;;;;;;;17.45;8.52;;;;;;;5.93;69.80;98406.44;5093006;28;20111;-51
2021/12/11 02:37:09;;;;;;;15.20;6.18;;;;;;;5.80;70.07;98417.47;5092898;28;20046;-50
2021/12/11 02:39:51;;;;;;;12.52;5.85;;;;;;;5.66;70.12;98420.88;5094206;28;20064;-51
2021/12/11 02:42:28;;;;;;;12.30;5.65;;;;;;;5.52;70.03;98430.25;5092819;28;20020;-50
2021/12/11 02:45:09;;;;;;;9.48;5.50;;;;;;;5.37;70.57;98430.19;5094016;28;20028;-52
2021/12/11 02:47:41;;;;;;;7.07;5.65;;;;;;;5.31;70.76;98432.66;5093973;28;20021;-51
2021/12/11 02:50:16;;;;;;;12.88;5.78;;;;;;;5.26;71.16;98440.19;5093972;28;20024;-51
2021/12/11 02:52:47;;;;;;;18.20;6.63;;;;;;;5.23;71.35;98445.72;5092620;28;20028;-50
2021/12/11 02:55:19;;;;;;;11.38;5.57;;;;;;;5.23;71.35;98440.50;5093839;28;20035;-51
2021/12/11 02:57:51;;;;;;;11.68;5.35;;;;;;;5.22;71.69;98439.72;5093806;28;20389;-51
2021/12/11 03:00:29;;;;;;;16.10;5.75;;;;;;;5.22;72.16;98429.31;5093739;28;20034;-51
2021/12/11 03:03:05;;;;;;;11.18;5.53;;;;;;;5.23;71.94;98438.72;5093811;28;20126;-51
2021/12/11 03:05:42;;;;;;;11.88;4.97;;;;;;;5.20;72.04;98444.28;5093635;28;20027;-51
2021/12/11 03:08:13;;;;;;;8.50;5.00;;;;;;;5.21;71.54;98445.88;5093643;28;20028;-51
2021/12/11 03:10:42;;;;;;;13.70;6.00;;;;;;;5.19;71.26;98453.88;5093297;28;20066;-51
2021/12/11 03:13:08;;;;;;;9.00;4.55;;;;;;;5.19;71.69;98456.47;5093437;28;20024;-51
2021/12/11 03:15:34;;;;;;;11.05;6.25;;;;;;;5.26;71.61;98464.41;5093348;28;20036;-50
2021/12/11 03:18:02;;;;;;;9.10;4.35;;;;;;;5.29;71.61;98466.69;5093403;28;20012;-50
2021/12/11 03:20:28;;;;;;;7.82;4.85;;;;;;;5.30;71.61;98457.88;5093260;28;20052;-50
2021/12/11 03:22:54;;;;;;;10.50;4.95;;;;;;;5.35;72.54;98467.75;5093286;28;20069;-51
2021/12/11 03:25:25;;;;;;;15.88;10.05;;;;;;;5.59;72.06;98470.22;5092829;28;20032;-51
2021/12/11 03:27:52;;;;;;;13.95;7.40;;;;;;;6.01;71.31;98473.31;5093289;28;20040;-51
2021/12/11 03:30:23;;;;;;;12.77;5.28;;;;;;;6.34;70.52;98483.47;5093141;28;20100;-52
2021/12/11 03:32:53;;;;;;;16.85;4.85;;;;;;;6.33;69.33;98481.84;5093205;28;20431;-51
2021/12/11 03:35:20;;;;;;;13.60;4.95;;;;;;;6.37;69.45;98485.72;5093081;28;20059;-50
2021/12/11 03:37:46;;;;;;;11.65;5.65;;;;;;;6.38;69.00;98488.16;5093018;28;20082;-50
2021/12/11 03:40:12;;;;;;;8.65;4.93;;;;;;;6.27;69.68;98490.38;5092984;28;20016;-50
2021/12/11 03:42:40;;;;;;;9.85;5.30;;;;;;;6.08;69.28;98496.91;5092908;28;20072;-52
2021/12/11 03:45:11;;;;;;;12.95;5.22;;;;;;;5.87;70.03;98490.50;5093070;28;20056;-50
2021/12/11 03:47:42;;;;;;;9.95;5.60;;;;;;;5.82;70.48;98502.44;5091585;28;20153;-51
2021/12/11 03:50:13;;;;;;;10.07;4.30;;;;;;;5.86;69.94;98507.13;5092867;28;20020;-51
2021/12/11 03:52:41;;;;;;;18.80;11.07;;;;;;;5.83;69.75;98507.47;5091494;28;20383;-50
2021/12/11 03:55:10;;;;;;;9.18;5.47;;;;;;;5.74;70.32;98506.72;5092709;28;20106;-51
2021/12/11 03:57:37;;;;;;;10.68;5.20;;;;;;;5.65;70.17;98506.94;5092673;28;20035;-51
2021/12/11 04:00:09;;;;;;;8.73;4.70;;;;;;;5.49;70.13;98511.25;5092577;28;20023;-50
2021/12/11 04:02:36;;;;;;;15.15;5.50;;;;;;;5.38;71.11;98509.88;5092603;28;20035;-51
2021/12/11 04:05:05;;;;;;;14.15;5.57;;;;;;;5.32;70.75;98507.94;5091128;28;20107;-51
2021/12/11 04:07:39;;;;;;;21.23;6.88;;;;;;;5.21;70.95;98513.53;5091155;28;20443;-52
2021/12/11 04:10:08;;;;;;;15.63;5.63;;;;;;;5.12;71.02;98514.56;5092526;28;20028;-51
2021/12/11 04:12:33;;;;;;;15.27;6.43;;;;;;;5.07;71.44;98519.44;5092384;28;20446;-51
2021/12/11 04:14:59;;;;;;;11.65;5.03;;;;;;;5.05;71.52;98522.22;5091017;28;20501;-50
2021/12/11 04:17:27;;;;;;;14.55;5.85;;;;;;;5.08;71.53;98518.47;5092279;28;20073;-51
2021/12/11 04:19:58;;;;;;;11.70;5.28;;;;;;;5.03;71.40;98528.56;5092364;28;20024;-50
2021/12/11 04:22:26;;;;;;;10.13;5.10;;;;;;;4.97;71.33;98530.03;5091826;28;20085;-50
2021/12/11 04:24:52;;;;;;;11.88;5.20;;;;;;;4.97;72.37;98530.88;5091589;28;20105;-50
2021/12/11 04:27:20;;;;;;;11.70;5.20;;;;;;;5.14;72.08;98543.81;5092191;28;20024;-50
2021/12/11 04:29:49;;;;;;;12.93;5.65;;;;;;;5.34;71.75;98539.81;5092158;28;20043;-51
2021/12/11 04:32:16;;;;;;;10.18;4.65;;;;;;;5.44;71.21;98537.00;5092051;28;20020;-50
2021/12/11 04:34:42;;;;;;;12.55;5.03;;;;;;;5.53;71.82;98537.75;5092073;28;20022;-50
2021/12/11 04:37:16;;;;;;;9.40;4.53;;;;;;;5.48;70.85;98546.09;5090736;28;20107;-51
2021/12/11 04:39:46;;;;;;;8.95;3.70;;;;;;;5.34;70.55;98558.03;5092063;28;20062;-50
2021/12/11 04:42:25;;;;;;;11.40;5.10;;;;;;;5.39;71.05;98557.50;5092280;28;20020;-50
2021/12/11 04:44:51;;;;;;;7.43;4.22;;;;;;;5.49;70.38;98558.09;5091897;28;20069;-51
2021/12/11 04:47:37;;;;;;;11.15;4.03;;;;;;;5.39;70.12;98562.72;5091835;28;20013;-51
2021/12/11 04:50:11;;;;;;;;;;;;;;;5.26;70.06;98565.06;5092334;28;20433;-50
2021/12/11 04:52:54;;;;;;;7.18;4.50;;;;;;;5.18;70.76;98566.72;5091907;28;19915;-50
2021/12/11 04:55:40;;;;;;;6.90;3.88;;;;;;;5.14;70.67;98575.03;5091806;28;20031;-50
2021/12/11 04:58:43;;;;;;;9.93;5.53;;;;;;;5.07;70.72;98574.91;5091842;28;20036;-50
2021/12/11 05:01:06;;;;;;;7.70;3.50;;;;;;;5.02;71.29;98577.16;5091346;28;20028;-50
2021/12/11 05:04:11;;;;;;;8.90;3.20;;;;;;;4.99;71.54;98577.53;5091837;28;20077;-50
2021/12/11 05:07:29;;;;;;;7.38;3.25;;;;;;;4.97;71.41;98582.06;5091497;28;20396;-50
2021/12/11 05:09:33;;;;;;;;;;;;;;;4.97;71.07;98574.25;5088001;28;20068;-51
2021/12/11 05:14:52;;;;;;;7.95;3.40;;;;;;;4.93;71.13;98576.41;5091983;28;20044;-51
2021/12/11 05:17:19;;;;;;;9.93;3.17;;;;;;;4.93;70.99;98584.19;5091625;28;20027;-50
2021/12/11 05:19:46;;;;;;;14.73;4.70;;;;;;;4.94;71.13;98593.59;5091641;28;20031;-50
2021/12/11 05:22:13;;;;;;;14.70;5.00;;;;;;;4.99;71.15;98583.53;5090289;28;20052;-51
2021/12/11 05:24:42;;;;;;;8.77;3.78;;;;;;;5.17;70.82;98598.91;5091253;28;20047;-50
2021/12/11 05:27:08;;;;;;;9.45;2.88;;;;;;;5.16;70.51;98597.28;5091485;28;20028;-50
2021/12/11 05:29:34;;;;;;;8.85;3.38;;;;;;;5.20;70.42;98593.38;5090227;28;20032;-50
2021/12/11 05:32:03;;;;;;;9.82;3.28;;;;;;;5.24;70.64;98606.06;5091487;28;20043;-51
2021/12/11 05:34:29;;;;;;;8.50;2.78;;;;;;;5.29;69.62;98603.75;5092687;28;20021;-50
2021/12/11 05:36:55;;;;;;;8.93;2.72;;;;;;;5.38;69.42;98619.16;5095349;28;20370;-51
2021/12/11 05:39:21;;;;;;;13.02;6.18;;;;;;;5.45;69.98;98616.69;5094014;28;20031;-50
2021/12/11 05:41:48;;;;;;;8.30;4.35;;;;;;;5.58;70.33;98624.78;5095531;28;20393;-51
2021/12/11 05:44:16;;;;;;;8.13;3.47;;;;;;;5.59;69.05;98621.22;5095477;28;20072;-51
2021/12/11 05:46:43;;;;;;;9.18;4.35;;;;;;;5.47;69.06;98627.75;5095090;28;20016;-51
2021/12/11 05:49:10;;;;;;;10.93;3.63;;;;;;;5.33;69.07;98631.06;5095168;28;20023;-51
2021/12/11 05:51:39;;;;;;;13.60;4.40;;;;;;;5.23;69.72;98630.44;5093785;28;20028;-51
2021/12/11 05:54:14;;;;;;;20.98;5.78;;;;;;;5.18;70.16;98636.16;5095017;28;20408;-50
2021/12/11 05:56:41;;;;;;;10.23;5.07;;;;;;;5.17;70.21;98637.09;5095036;28;20134;-51
2021/12/11 05:59:10;;;;;;;10.77;4.70;;;;;;;5.17;70.60;98639.72;5094911;28;20038;-51
2021/12/11 06:01:38;;;;;;;8.00;4.10;;;;;;;5.15;70.21;98644.28;5093569;28;20027;-52
2021/12/11 06:04:16;;;;;;;9.77;4.80;;;;;;;5.10;70.82;98649.19;5094884;28;20074;-52
2021/12/11 06:06:43;;;;;;;8.45;4.13;;;;;;;5.03;70.85;98656.00;5094804;28;20027;-50
2021/12/11 06:09:11;;;;;;;9.50;3.67;;;;;;;4.97;70.54;98658.31;5094795;28;20020;-51
2021/12/11 06:11:38;;;;;;;13.93;4.22;;;;;;;4.91;70.55;98658.13;5094746;28;20021;-50
2021/12/11 06:14:05;;;;;;;12.32;4.25;;;;;;;5.19;71.14;98666.38;5094651;28;20489;-50
2021/12/11 06:16:31;;;;;;;8.00;4.28;;;;;;;5.59;70.72;98662.84;5094631;28;20077;-50
2021/12/11 06:19:02;;;;;;;12.13;3.38;;;;;;;5.73;69.38;98674.31;5094587;28;20048;-50
2021/12/11 06:21:29;;;;;;;9.98;3.00;;;;;;;5.71;68.84;98678.91;5093256;28;20122;-51
2021/12/11 06:23:55;;;;;;;11.52;3.20;;;;;;;5.65;68.34;98676.16;5094341;28;20398;-52
2021/12/11 06:26:20;;;;;;;12.82;2.95;;;;;;;5.66;68.56;98678.59;5094330;28;20543;-50
2021/12/11 06:28:46;;;;;;;27.08;5.95;;;;;;;5.77;69.53;98690.44;5094334;28;20584;-50
2021/12/11 06:31:18;;;;;;;14.88;4.35;;;;;;;6.06;68.52;98686.44;5094348;28;20024;-51
2021/12/11 06:33:49;;;;;;;8.85;2.85;;;;;;;6.30;67.66;98690.66;5094362;28;20107;-51
2021/12/11 06:36:16;;;;;;;10.98;3.78;;;;;;;6.53;66.73;98688.09;5094278;28;20028;-50
2021/12/11 06:38:45;;;;;;;8.25;3.03;;;;;;;6.57;65.68;98692.78;5094279;28;20044;-50
2021/12/11 06:41:13;;;;;;;8.95;3.13;;;;;;;6.30;66.47;98690.66;5094182;28;20393;-50
2021/12/11 06:43:40;;;;;;;10.35;3.70;;;;;;;6.06;67.09;98699.47;5094187;28;20012;-50
2021/12/11 06:46:07;;;;;;;10.90;3.70;;;;;;;6.06;67.14;98713.31;5091857;28;20035;-51
2021/12/11 06:48:33;;;;;;;14.75;3.40;;;;;;;6.18;67.42;98711.94;5094298;28;20044;-50
2021/12/11 06:51:01;;;;;;;11.88;3.30;;;;;;;6.15;66.35;98714.06;5093999;28;20512;-50
2021/12/11 06:53:34;;;;;;;8.73;3.08;;;;;;;6.14;66.05;98712.47;5093974;28;20397;-51
2021/12/11 06:56:00;;;;;;;33.00;4.28;;;;;;;6.05;67.08;98718.69;5093925;28;20024;-51
2021/12/11 06:58:27;;;;;;;22.58;3.47;;;;;;;6.00;66.69;98722.59;5093845;28;20030;-50
2021/12/11 07:00:54;;;;;;;19.70;5.93;;;;;;;6.05;67.03;98731.69;5093786;28;20032;-51
2021/12/11 07:03:20;;;;;;;15.88;3.95;;;;;;;6.19;67.14;98729.19;5092397;28;20048;-50
2021/12/11 07:05:45;;;;;;;11.95;3.15;;;;;;;6.52;66.25;98730.78;5093595;28;20585;-50
2021/12/11 07:08:16;;;;;;;50.40;5.18;;;;;;;6.52;66.13;98739.44;5093659;28;20028;-50
2021/12/11 07:10:42;;;;;;;13.60;3.05;;;;;;;6.49;65.83;98731.94;5093632;28;20436;-51
2021/12/11 07:13:10;;;;;;;29.85;4.32;;;;;;;6.48;65.65;98745.97;5093505;28;20394;-51
2021/12/11 07:15:36;;;;;;;20.05;4.35;;;;;;;6.36;65.70;98742.94;5093729;28;20397;-50
2021/12/11 07:18:03;;;;;;;8.15;2.63;;;;;;;6.19;66.11;98757.84;5093458;28;20059;-50
2021/12/11 07:20:29;;;;;;;22.33;6.57;;;;;;;6.22;66.38;98756.72;5093442;28;20020;-51
2021/12/11 07:22:55;;;;;;;6.68;2.38;;;;;;;6.33;66.11;98760.72;5093351;28;20024;-50
2021/12/11 07:25:34;;;;;;;9.88;2.83;;;;;;;6.39;65.95;98760.84;5092863;28;20040;-50
2021/12/11 07:28:03;;;;;;;12.88;2.90;;;;;;;6.40;65.37;98753.84;5093231;28;20059;-49
2021/12/11 07:30:31;;;;;;;9.32;2.63;;;;;;;6.39;65.60;98770.47;5093163;28;20107;-50
2021/12/11 07:33:00;;;;;;;9.45;2.30;;;;;;;6.42;65.17;98774.50;5093158;28;20024;-50
2021/12/11 07:35:26;;;;;;;10.15;2.58;;;;;;;6.46;65.05;98771.41;5093107;28;20089;-50
2021/12/11 07:37:53;;;;;;;9.98;2.95;;;;;;;6.37;64.72;98770.63;5093075;28;20107;-51
2021/12/11 07:40:23;;;;;;;10.02;2.63;;;;;;;6.33;64.73;98771.16;5093001;28;20024;-51
2021/12/11 07:42:53;;;;;;;7.32;2.95;;;;;;;6.20;65.29;98774.31;5091772;28;20028;-51
2021/12/11 07:45:20;;;;;;;8.77;2.33;;;;;;;6.11;65.15;98770.91;5092837;28;20389;-51
2021/12/11 07:47:45;;;;;;;11.75;2.55;;;;;;;5.99;64.88;98770.47;5092892;28;20442;-50
2021/12/11 07:50:12;;;;;;;14.85;3.58;;;;;;;5.99;64.92;98777.47;5091524;28;20028;-49
2021/12/11 07:52:40;;;;;;;12.65;2.30;;;;;;;6.06;65.20;98788.84;5092812;28;20030;-50
2021/12/11 07:55:06;;;;;;;12.63;3.40;;;;;;;6.22;65.50;98792.34;5092691;28;20538;-50
2021/12/11 07:57:32;;;;;;;11.10;2.53;;;;;;;6.35;65.25;98803.06;5092637;28;20039;-50
2021/12/11 07:59:57;;;;;;;11.07;2.50;;;;;;;6.32;64.93;98793.78;5092689;28;20366;-50
2021/12/11 08:02:23;;;;;;;10.55;3.17;;;;;;;6.30;64.81;98807.97;5092562;28;20027;-51
2021/12/11 08:04:49;;;;;;;13.13;2.33;;;;;;;6.22;64.79;98815.81;5092482;28;20024;-50
2021/12/11 08:07:15;;;;;;;9.18;2.38;;;;;;;6.23;65.35;98817.44;5092511;28;20505;-50
2021/12/11 08:09:40;;;;;;;10.57;2.63;;;;;;;6.22;65.13;98818.41;5092473;28;20020;-51
2021/12/11 08:12:07;;;;;;;8.07;2.72;;;;;;;6.26;64.87;98830.97;5092392;28;20016;-50
2021/12/11 08:14:33;;;;;;;7.93;2.40;;;;;;;6.35;64.99;98834.34;5092455;28;20032;-49
2021/12/11 08:17:04;;;;;;;10.30;3.05;;;;;;;6.56;64.80;98833.75;5092311;28;20030;-51
2021/12/11 08:19:30;;;;;;;11.60;3.00;;;;;;;6.82;64.51;98845.69;5092412;28;20020;-49
2021/12/11 08:21:59;;;;;;;12.73;3.65;;;;;;;6.93;63.44;98853.94;5092139;28;20077;-51
2021/12/11 08:24:28;;;;;;;13.32;3.35;;;;;;;6.99;63.86;98858.44;5092152;28;20056;-51
2021/12/11 08:26:56;;;;;;;8.73;3.03;;;;;;;7.06;63.14;98862.97;5092124;28;20115;-50
2021/12/11 08:29:24;;;;;;;9.57;2.58;;;;;;;7.11;63.09;98871.91;5092103;28;20052;-50
2021/12/11 08:31:52;;;;;;;5.22;2.38;;;;;;;7.12;62.72;98870.94;5092201;28;20026;-51
2021/12/11 08:34:18;;;;;;;11.13;3.30;;;;;;;7.09;62.29;98873.88;5092227;28;20485;-49
2021/12/11 08:36:45;;;;;;;12.60;3.15;;;;;;;7.14;62.93;98881.19;5092067;28;20024;-50
2021/12/11 08:39:14;;;;;;;7.70;3.15;;;;;;;7.20;62.94;98889.16;5092046;28;20024;-50
2021/12/11 08:41:41;;;;;;;12.52;2.78;;;;;;;7.29;62.70;98887.28;5091982;28;20024;-50
2021/12/11 08:44:12;;;;;;;7.88;2.72;;;;;;;7.29;61.59;98887.28;5090691;28;20051;-51
2021/12/11 08:46:39;;;;;;;12.77;2.85;;;;;;;7.29;62.41;98896.94;5091935;28;20394;-50
2021/12/11 08:49:11;;;;;;;5.88;2.50;;;;;;;7.33;61.77;98893.78;5091973;28;20313;-50
2021/12/11 08:52:00;;;;;;;12.57;2.55;;;;;;;7.45;61.92;98903.84;5091969;28;20470;-49
2021/12/11 08:54:28;;;;;;;13.20;2.80;;;;;;;7.55;61.66;98912.25;5091450;28;20046;-50
2021/12/11 08:56:56;;;;;;;12.35;2.90;;;;;;;7.60;61.58;98918.53;5091809;28;20028;-50
2021/12/11 08:59:25;;;;;;;13.27;2.92;;;;;;;7.69;60.99;98915.91;5091857;28;20024;-50
2021/12/11 09:02:16;;;;;;;10.00;3.38;;;;;;;7.66;61.04;98919.66;5091849;28;20028;-50
2021/12/11 09:04:55;;;;;;;15.18;3.90;;;;;;;7.59;61.02;98916.94;5091789;28;20039;-50
2021/12/11 09:07:31;;;;;;;6.20;3.10;;;;;;;7.52;61.00;98923.03;5091782;28;20027;-50
2021/12/11 09:10:14;;;;;;;13.95;2.95;;;;;;;7.38;60.78;98925.44;5093835;28;20035;-51
2021/12/11 09:12:44;;;;;;;14.95;2.88;;;;;;;7.62;60.86;98925.41;5095893;28;20072;-50
2021/12/11 09:15:33;;;;;;;11.85;4.20;;;;;;;7.87;60.38;98931.22;5095781;28;20494;-50
2021/12/11 09:18:09;;;;;;;13.38;8.45;;;;;;;8.03;59.57;98933.72;5095805;28;20074;-51
2021/12/11 09:20:49;;;;;;;7.22;3.95;;;;;;;8.03;58.83;98935.50;5095790;28;20543;-49
2021/12/11 09:24:07;;;;;;;10.85;2.50;;;;;;;7.88;59.47;98945.94;5095734;28;20119;-51
2021/12/11 09:27:01;;;;;;;9.38;2.30;;;;;;;7.69;59.26;98947.25;5095227;28;20052;-50
2021/12/11 09:29:42;;;;;;;11.43;3.15;;;;;;;7.57;59.90;98945.03;5091562;28;20417;-50
2021/12/11 09:32:28;;;;;;;10.95;2.50;;;;;;;7.60;60.26;98960.34;5095469;28;20028;-50
2021/12/11 09:35:17;;;;;;;7.57;2.20;;;;;;;7.69;59.06;98968.94;5095546;28;20016;-50
2021/12/11 09:37:46;;;;;;;7.25;2.00;;;;;;;7.70;59.18;98967.94;5095456;28;20042;-50
2021/12/11 09:40:36;;;;;;;7.57;2.30;;;;;;;7.68;58.94;98976.94;5095278;28;20099;-50
2021/12/11 09:43:02;;;;;;;7.68;2.20;;;;;;;7.68;59.29;98985.59;5063651;28;20047;-50
2021/12/11 09:45:36;;;;;;;9.40;2.13;;;;;;;7.68;59.11;98984.78;5093854;28;20103;-49
2021/12/11 09:48:09;;;;;;;10.80;2.40;;;;;;;7.66;58.82;98990.19;5095229;28;20118;-49
2021/12/11 09:50:57;;;;;;;8.57;2.10;;;;;;;7.55;58.93;99004.47;5095182;28;20024;-50
2021/12/11 09:53:26;;;;;;;9.93;2.70;;;;;;;7.51;58.88;99003.19;5093843;28;20036;-50
2021/12/11 09:55:55;;;;;;;10.30;2.80;;;;;;;7.41;59.05;99007.81;5095088;28;20501;-49
2021/12/11 09:58:26;;;;;;;9.55;2.17;;;;;;;7.44;58.99;99007.47;5093648;28;20032;-50
2021/12/11 10:01:11;;;;;;;6.05;2.28;;;;;;;7.51;59.32;99015.44;5094992;28;20020;-51
2021/12/11 10:03:46;;;;;;;12.70;2.50;;;;;;;7.56;59.02;99018.31;5094969;28;20099;-50
2021/12/11 10:06:37;;;;;;;10.73;2.53;;;;;;;7.65;58.45;99003.44;5094816;28;20028;-49
2021/12/11 10:09:17;;;;;;;8.73;3.08;;;;;;;7.71;58.72;99015.81;5094872;28;20501;-49
2021/12/11 10:11:46;;;;;;;7.10;2.35;;;;;;;7.74;58.74;99013.63;5094774;28;20397;-50
2021/12/11 10:14:15;;;;;;;10.13;2.58;;;;;;;7.71;58.36;99021.84;5093357;28;20024;-49
2021/12/11 10:16:48;;;;;;;7.65;2.30;;;;;;;7.59;59.41;99018.81;5094647;28;20028;-50
2021/12/11 10:19:18;;;;;;;9.90;2.50;;;;;;;7.63;58.78;99016.66;5094658;28;20028;-50
2021/12/11 10:21:51;;;;;;;6.75;2.10;;;;;;;7.65;59.15;99016.50;5093298;28;20447;-51
2021/12/11 10:24:20;;;;;;;6.45;2.45;;;;;;;7.75;59.24;99007.44;5094278;28;20036;-50
2021/12/11 10:26:47;;;;;;;7.95;2.38;;;;;;;7.95;59.17;99014.81;5093114;28;20566;-50
2021/12/11 10:29:15;;;;;;;7.15;2.28;;;;;;;8.10;58.49;99007.00;5093084;28;20028;-50
2021/12/11 10:31:47;;;;;;;10.73;2.35;;;;;;;8.26;57.95;99006.06;5094340;28;20432;-50
2021/12/11 10:34:17;;;;;;;5.25;2.53;;;;;;;8.23;58.10;99017.69;5094373;28;20576;-50
2021/12/11 10:36:50;;;;;;;11.38;2.92;;;;;;;8.23;57.40;99019.47;5092950;28;20109;-50
2021/12/11 10:39:16;;;;;;;8.95;2.30;;;;;;;8.15;57.54;99020.38;5094240;28;20107;-50
2021/12/11 10:41:43;;;;;;;10.77;2.60;;;;;;;8.18;57.23;99018.19;5094155;28;20098;-50
2021/12/11 10:44:17;;;;;;;11.50;3.00;;;;;;;8.27;57.35;99012.91;5094181;28;20046;-50
2021/12/11 10:46:53;;;;;;;9.07;2.60;;;;;;;8.32;57.26;99018.44;5092690;28;20028;-50
2021/12/11 10:49:20;;;;;;;11.43;2.97;;;;;;;8.46;56.96;99016.84;5094114;28;20471;-50
2021/12/11 10:52:00;;;;;;;7.28;2.85;;;;;;;8.62;56.90;99021.13;5093972;28;20048;-50
2021/12/11 10:54:27;;;;;;;6.97;2.35;;;;;;;8.77;56.31;99016.69;5092665;28;20024;-50
2021/12/11 10:56:52;;;;;;;8.25;2.38;;;;;;;8.94;56.22;99018.13;5093826;28;20113;-49
2021/12/11 10:59:24;;;;;;;11.07;3.05;;;;;;;9.15;55.33;99016.59;5092456;28;20020;-50
2021/12/11 11:01:58;;;;;;;24.25;3.58;;;;;;;9.42;55.51;99011.66;5092469;28;20032;-50
2021/12/11 11:04:35;;;;;;;10.80;3.60;;;;;;;9.75;55.21;99018.06;5093767;28;20050;-50
2021/12/11 11:07:04;;;;;;;16.73;3.40;;;;;;;10.06;54.11;99019.56;5093699;28;20065;-51
2021/12/11 11:09:30;;;;;;;14.65;3.42;;;;;;;10.44;53.26;99021.88;5092296;28;20035;-50
2021/12/11 11:12:00;;;;;;;21.85;3.80;;;;;;;10.66;52.45;99008.72;5093556;28;20020;-50
2021/12/11 11:14:27;;;;;;;11.10;2.28;;;;;;;10.54;51.40;99017.16;5093602;28;20032;-50
2021/12/11 11:17:09;;;;;;;10.43;2.70;;;;;;;10.17;52.76;99016.41;5093469;28;20055;-50
2021/12/11 11:19:38;;;;;;;10.18;4.88;;;;;;;10.10;51.48;99009.50;5093494;28;20028;-49
2021/12/11 11:22:26;;;;;;;10.90;3.75;;;;;;;9.99;50.96;99019.50;5093353;28;20037;-50
2021/12/11 11:25:04;;;;;;;13.02;5.90;;;;;;;9.83;51.21;99011.88;5093115;28;20408;-49
2021/12/11 11:27:29;;;;;;;8.68;3.65;;;;;;;9.92;51.10;99023.03;5092074;28;20032;-50
2021/12/11 11:29:56;;;;;;;6.97;2.17;;;;;;;9.69;51.32;99013.56;5093297;28;20489;-50
2021/12/11 11:32:31;;;;;;;11.30;2.17;;;;;;;9.39;52.05;99021.50;5092856;28;20132;-51
2021/12/11 11:35:08;;;;;;;8.10;2.90;;;;;;;9.35;53.14;99027.28;5093290;28;20032;-49
2021/12/11 11:37:35;;;;;;;7.35;2.42;;;;;;;9.40;53.48;99030.19;5093191;28;20111;-50
2021/12/11 11:40:06;;;;;;;9.30;2.20;;;;;;;9.48;53.25;99032.69;5091731;28;20116;-50
2021/12/11 11:42:32;;;;;;;12.07;2.60;;;;;;;9.46;52.75;99036.50;5093142;28;20032;-50
2021/12/11 11:44:59;;;;;;;8.48;2.42;;;;;;;9.37;52.58;99047.06;5092938;28;20459;-50
2021/12/11 11:47:25;;;;;;;7.50;2.20;;;;;;;9.34;52.82;99034.34;5091613;28;20031;-49
2021/12/11 11:49:58;;;;;;;10.32;2.28;;;;;;;9.53;52.76;99046.03;5092903;28;20024;-50
2021/12/11 11:52:25;;;;;;;7.43;2.13;;;;;;;9.95;51.67;99031.34;5092885;28;20027;-49
2021/12/11 11:54:54;;;;;;;20.95;5.05;;;;;;;10.14;51.77;99036.97;5092819;28;20028;-50
2021/12/11 11:57:27;;;;;;;7.55;1.88;;;;;;;10.10;51.14;99028.69;5092645;28;20028;-49
2021/12/11 11:59:57;;;;;;;11.02;2.63;;;;;;;9.86;51.59;99035.13;5092745;28;20031;-50
2021/12/11 12:02:25;;;;;;;6.47;1.83;;;;;;;9.52;51.96;99035.78;5092617;28;20056;-49